sensor_id;sensor_type;location;lat;lon;timestamp;P1;durP1;ratioP1;P2;durP2;ratioP2
55545;SDS011;44768;50.298;127.520;2022-10-17T00:04:23;6.90;;;1.50;;
55545;SDS011;44768;50.298;127.520;2022-10-17T00:09:24;3.65;;;1.67;;
55545;SDS011;44768;50.298;127.520;2022-10-17T00:14:25;1.60;;;1.30;;
55545;SDS011;44768;50.298;127.520;2022-10-17T00:19:27;2.00;;;1.37;;
55545;SDS011;44768;50.298;127.520;2022-10-17T00:24:29;3.13;;;1.03;;
55545;SDS011;44768;50.298;127.520;2022-10-17T00:29:31;1.42;;;1.20;;
55545;SDS011;44768;50.298;127.520;2022-10-17T00:34:32;1.27;;;1.10;;
55545;SDS011;44768;50.298;127.520;2022-10-17T00:39:33;2.10;;;1.10;;
55545;SDS011;44768;50.298;127.520;2022-10-17T00:49:35;1.75;;;1.20;;
55545;SDS011;44768;50.298;127.520;2022-10-17T00:54:39;2.70;;;1.33;;
55545;SDS011;44768;50.298;127.520;2022-10-17T00:59:41;2.00;;;1.45;;
55545;SDS011;44768;50.298;127.520;2022-10-17T01:04:44;2.78;;;2.10;;
55545;SDS011;44768;50.298;127.520;2022-10-17T01:09:46;2.40;;;1.80;;
55545;SDS011;44768;50.298;127.520;2022-10-17T01:20:29;1.98;;;1.20;;
55545;SDS011;44768;50.298;127.520;2022-10-17T01:25:40;2.63;;;1.00;;
55545;SDS011;44768;50.298;127.520;2022-10-17T01:36:12;1.17;;;0.88;;
55545;SDS011;44768;50.298;127.520;2022-10-17T01:41:24;2.03;;;1.25;;
55545;SDS011;44768;50.298;127.520;2022-10-17T01:46:28;4.82;;;1.40;;
55545;SDS011;44768;50.298;127.520;2022-10-17T01:51:36;4.63;;;1.30;;
55545;SDS011;44768;50.298;127.520;2022-10-17T01:56:38;5.63;;;1.40;;
55545;SDS011;44768;50.298;127.520;2022-10-17T02:01:40;1.55;;;1.30;;
55545;SDS011;44768;50.298;127.520;2022-10-17T02:06:43;4.90;;;1.17;;
55545;SDS011;44768;50.298;127.520;2022-10-17T02:11:46;3.77;;;1.63;;
55545;SDS011;44768;50.298;127.520;2022-10-17T02:17:34;2.13;;;1.10;;
55545;SDS011;44768;50.298;127.520;2022-10-17T02:22:22;4.30;;;1.30;;
55545;SDS011;44768;50.298;127.520;2022-10-17T02:32:33;4.55;;;1.70;;
55545;SDS011;44768;50.298;127.520;2022-10-17T02:37:35;1.75;;;1.30;;
55545;SDS011;44768;50.298;127.520;2022-10-17T02:42:37;2.08;;;1.40;;
55545;SDS011;44768;50.298;127.520;2022-10-17T02:52:48;1.92;;;1.33;;
55545;SDS011;44768;50.298;127.520;2022-10-17T02:57:55;3.25;;;1.10;;
55545;SDS011;44768;50.298;127.520;2022-10-17T03:02:57;2.15;;;1.10;;
55545;SDS011;44768;50.298;127.520;2022-10-17T03:07:58;1.20;;;1.10;;
55545;SDS011;44768;50.298;127.520;2022-10-17T03:12:59;1.40;;;1.30;;
55545;SDS011;44768;50.298;127.520;2022-10-17T03:18:01;1.02;;;0.98;;
55545;SDS011;44768;50.298;127.520;2022-10-17T03:23:02;9.90;;;1.20;;
55545;SDS011;44768;50.298;127.520;2022-10-17T03:28:04;9.17;;;1.20;;
55545;SDS011;44768;50.298;127.520;2022-10-17T03:33:05;27.92;;;2.28;;
55545;SDS011;44768;50.298;127.520;2022-10-17T03:38:06;4.50;;;1.50;;
55545;SDS011;44768;50.298;127.520;2022-10-17T03:43:07;3.43;;;1.23;;
55545;SDS011;44768;50.298;127.520;2022-10-17T03:48:11;5.35;;;1.10;;
55545;SDS011;44768;50.298;127.520;2022-10-17T03:53:12;3.87;;;0.80;;
55545;SDS011;44768;50.298;127.520;2022-10-17T03:58:13;7.73;;;1.30;;
55545;SDS011;44768;50.298;127.520;2022-10-17T04:03:14;2.90;;;0.97;;
55545;SDS011;44768;50.298;127.520;2022-10-17T04:08:15;1.07;;;1.00;;
55545;SDS011;44768;50.298;127.520;2022-10-17T04:13:16;2.20;;;1.43;;
55545;SDS011;44768;50.298;127.520;2022-10-17T04:18:18;16.33;;;1.80;;
55545;SDS011;44768;50.298;127.520;2022-10-17T04:23:19;1.30;;;1.20;;
55545;SDS011;44768;50.298;127.520;2022-10-17T04:28:21;4.28;;;0.95;;
55545;SDS011;44768;50.298;127.520;2022-10-17T04:38:24;5.28;;;1.00;;
55545;SDS011;44768;50.298;127.520;2022-10-17T04:43:25;6.43;;;1.17;;
55545;SDS011;44768;50.298;127.520;2022-10-17T04:48:26;2.27;;;0.90;;
55545;SDS011;44768;50.298;127.520;2022-10-17T04:53:29;2.20;;;1.17;;
55545;SDS011;44768;50.298;127.520;2022-10-17T04:58:31;8.48;;;1.10;;
55545;SDS011;44768;50.298;127.520;2022-10-17T05:03:32;3.75;;;1.10;;
55545;SDS011;44768;50.298;127.520;2022-10-17T05:08:33;1.02;;;1.00;;
55545;SDS011;44768;50.298;127.520;2022-10-17T05:13:34;4.43;;;1.00;;
55545;SDS011;44768;50.298;127.520;2022-10-17T05:18:35;1.70;;;1.10;;
55545;SDS011;44768;50.298;127.520;2022-10-17T05:23:37;5.87;;;1.10;;
55545;SDS011;44768;50.298;127.520;2022-10-17T05:28:39;1.83;;;0.90;;
55545;SDS011;44768;50.298;127.520;2022-10-17T05:33:40;1.20;;;0.93;;
55545;SDS011;44768;50.298;127.520;2022-10-17T05:38:41;1.85;;;1.15;;
55545;SDS011;44768;50.298;127.520;2022-10-17T05:43:43;1.57;;;1.00;;
55545;SDS011;44768;50.298;127.520;2022-10-17T05:48:44;8.23;;;1.13;;
55545;SDS011;44768;50.298;127.520;2022-10-17T05:53:45;1.07;;;0.80;;
55545;SDS011;44768;50.298;127.520;2022-10-17T05:58:46;1.20;;;1.07;;
55545;SDS011;44768;50.298;127.520;2022-10-17T06:03:48;3.50;;;0.88;;
55545;SDS011;44768;50.298;127.520;2022-10-17T06:08:49;0.90;;;0.80;;
55545;SDS011;44768;50.298;127.520;2022-10-17T06:13:51;1.00;;;0.90;;
55545;SDS011;44768;50.298;127.520;2022-10-17T06:18:52;7.85;;;1.13;;
55545;SDS011;44768;50.298;127.520;2022-10-17T06:23:53;1.60;;;1.03;;
55545;SDS011;44768;50.298;127.520;2022-10-17T06:28:57;1.55;;;0.95;;
55545;SDS011;44768;50.298;127.520;2022-10-17T06:33:58;2.00;;;1.05;;
55545;SDS011;44768;50.298;127.520;2022-10-17T06:38:59;3.03;;;1.20;;
55545;SDS011;44768;50.298;127.520;2022-10-17T06:44:00;2.47;;;1.00;;
55545;SDS011;44768;50.298;127.520;2022-10-17T06:49:10;15.50;;;1.48;;
55545;SDS011;44768;50.298;127.520;2022-10-17T06:54:11;4.93;;;1.03;;
55545;SDS011;44768;50.298;127.520;2022-10-17T06:59:12;1.60;;;1.23;;
55545;SDS011;44768;50.298;127.520;2022-10-17T07:04:15;1.63;;;1.17;;
55545;SDS011;44768;50.298;127.520;2022-10-17T07:09:16;11.13;;;1.50;;
55545;SDS011;44768;50.298;127.520;2022-10-17T07:14:17;7.50;;;1.40;;
55545;SDS011;44768;50.298;127.520;2022-10-17T07:19:18;3.83;;;1.10;;
55545;SDS011;44768;50.298;127.520;2022-10-17T07:24:19;1.20;;;1.10;;
55545;SDS011;44768;50.298;127.520;2022-10-17T07:29:21;3.23;;;1.30;;
55545;SDS011;44768;50.298;127.520;2022-10-17T07:34:22;4.90;;;1.20;;
55545;SDS011;44768;50.298;127.520;2022-10-17T07:39:27;4.57;;;1.40;;
55545;SDS011;44768;50.298;127.520;2022-10-17T07:44:28;2.03;;;1.48;;
55545;SDS011;44768;50.298;127.520;2022-10-17T07:49:29;7.10;;;2.30;;
55545;SDS011;44768;50.298;127.520;2022-10-17T07:54:30;4.90;;;2.20;;
55545;SDS011;44768;50.298;127.520;2022-10-17T07:59:32;20.52;;;2.72;;
55545;SDS011;44768;50.298;127.520;2022-10-17T08:04:34;8.85;;;2.40;;
55545;SDS011;44768;50.298;127.520;2022-10-17T08:09:36;10.75;;;1.73;;
55545;SDS011;44768;50.298;127.520;2022-10-17T08:14:37;2.67;;;1.50;;
55545;SDS011;44768;50.298;127.520;2022-10-17T08:24:40;4.40;;;1.35;;
55545;SDS011;44768;50.298;127.520;2022-10-17T08:29:42;2.90;;;1.63;;
55545;SDS011;44768;50.298;127.520;2022-10-17T08:34:48;5.85;;;2.42;;
55545;SDS011;44768;50.298;127.520;2022-10-17T08:39:49;4.13;;;1.88;;
55545;SDS011;44768;50.298;127.520;2022-10-17T08:50:16;11.40;;;2.10;;
55545;SDS011;44768;50.298;127.520;2022-10-17T08:55:27;11.02;;;2.33;;
55545;SDS011;44768;50.298;127.520;2022-10-17T09:00:30;15.77;;;2.60;;
55545;SDS011;44768;50.298;127.520;2022-10-17T09:06:16;5.65;;;2.00;;
55545;SDS011;44768;50.298;127.520;2022-10-17T09:21:16;3.30;;;2.20;;
55545;SDS011;44768;50.298;127.520;2022-10-17T09:26:18;9.70;;;2.17;;
55545;SDS011;44768;50.298;127.520;2022-10-17T09:31:33;7.57;;;2.00;;
55545;SDS011;44768;50.298;127.520;2022-10-17T09:36:38;5.25;;;1.67;;
55545;SDS011;44768;50.298;127.520;2022-10-17T09:41:43;7.18;;;1.90;;
55545;SDS011;44768;50.298;127.520;2022-10-17T09:51:58;14.53;;;2.17;;
55545;SDS011;44768;50.298;127.520;2022-10-17T10:02:33;20.23;;;3.00;;
55545;SDS011;44768;50.298;127.520;2022-10-17T10:07:29;21.75;;;2.45;;
55545;SDS011;44768;50.298;127.520;2022-10-17T10:12:33;10.80;;;2.60;;
55545;SDS011;44768;50.298;127.520;2022-10-17T10:17:36;4.68;;;2.30;;
55545;SDS011;44768;50.298;127.520;2022-10-17T10:22:38;9.32;;;2.42;;
55545;SDS011;44768;50.298;127.520;2022-10-17T10:27:40;5.27;;;1.90;;
55545;SDS011;44768;50.298;127.520;2022-10-17T10:32:43;5.55;;;2.30;;
55545;SDS011;44768;50.298;127.520;2022-10-17T10:37:47;10.52;;;1.98;;
55545;SDS011;44768;50.298;127.520;2022-10-17T10:42:50;4.38;;;1.52;;
55545;SDS011;44768;50.298;127.520;2022-10-17T10:47:53;12.38;;;2.40;;
55545;SDS011;44768;50.298;127.520;2022-10-17T10:53:10;4.03;;;1.85;;
55545;SDS011;44768;50.298;127.520;2022-10-17T10:58:22;13.30;;;2.85;;
55545;SDS011;44768;50.298;127.520;2022-10-17T11:03:26;11.05;;;2.47;;
55545;SDS011;44768;50.298;127.520;2022-10-17T11:08:47;5.68;;;2.78;;
55545;SDS011;44768;50.298;127.520;2022-10-17T11:14:02;3.65;;;2.60;;
55545;SDS011;44768;50.298;127.520;2022-10-17T11:30:05;7.70;;;1.33;;
55545;SDS011;44768;50.298;127.520;2022-10-17T11:46:33;1.20;;;1.10;;
55545;SDS011;44768;50.298;127.520;2022-10-17T11:51:28;2.88;;;1.25;;
55545;SDS011;44768;50.298;127.520;2022-10-17T11:56:38;11.80;;;1.27;;
55545;SDS011;44768;50.298;127.520;2022-10-17T12:01:53;3.67;;;2.58;;
55545;SDS011;44768;50.298;127.520;2022-10-17T12:12:44;9.32;;;1.60;;
55545;SDS011;44768;50.298;127.520;2022-10-17T12:17:58;3.83;;;1.20;;
55545;SDS011;44768;50.298;127.520;2022-10-17T12:28:10;1.88;;;1.30;;
55545;SDS011;44768;50.298;127.520;2022-10-17T12:33:22;7.75;;;1.20;;
55545;SDS011;44768;50.298;127.520;2022-10-17T12:38:26;3.80;;;1.17;;
55545;SDS011;44768;50.298;127.520;2022-10-17T12:58:54;5.60;;;1.98;;
55545;SDS011;44768;50.298;127.520;2022-10-17T13:04:23;2.60;;;1.17;;
55545;SDS011;44768;50.298;127.520;2022-10-17T13:09:32;1.13;;;1.02;;
55545;SDS011;44768;50.298;127.520;2022-10-17T13:20:00;1.60;;;1.23;;
55545;SDS011;44768;50.298;127.520;2022-10-17T13:25:05;5.05;;;1.20;;
55545;SDS011;44768;50.298;127.520;2022-10-17T13:30:24;3.17;;;1.20;;
55545;SDS011;44768;50.298;127.520;2022-10-17T13:35:35;4.38;;;0.77;;
55545;SDS011;44768;50.298;127.520;2022-10-17T13:40:39;3.83;;;0.80;;
55545;SDS011;44768;50.298;127.520;2022-10-17T13:45:44;4.78;;;1.30;;
55545;SDS011;44768;50.298;127.520;2022-10-17T13:50:47;2.72;;;1.15;;
55545;SDS011;44768;50.298;127.520;2022-10-17T14:01:00;1.92;;;0.75;;
55545;SDS011;44768;50.298;127.520;2022-10-17T14:06:04;0.70;;;0.70;;
55545;SDS011;44768;50.298;127.520;2022-10-17T14:11:14;1.10;;;0.90;;
55545;SDS011;44768;50.298;127.520;2022-10-17T14:16:17;4.13;;;0.90;;
55545;SDS011;44768;50.298;127.520;2022-10-17T14:21:20;0.98;;;0.90;;
55545;SDS011;44768;50.298;127.520;2022-10-17T14:26:22;0.93;;;0.90;;
55545;SDS011;44768;50.298;127.520;2022-10-17T14:32:22;0.85;;;0.85;;
55545;SDS011;44768;50.298;127.520;2022-10-17T14:44:06;2.70;;;1.05;;
55545;SDS011;44768;50.298;127.520;2022-10-17T14:49:20;1.95;;;1.00;;
55545;SDS011;44768;50.298;127.520;2022-10-17T14:54:23;1.10;;;1.00;;
55545;SDS011;44768;50.298;127.520;2022-10-17T14:59:26;3.97;;;1.00;;
55545;SDS011;44768;50.298;127.520;2022-10-17T15:04:27;0.80;;;0.80;;
55545;SDS011;44768;50.298;127.520;2022-10-17T15:09:28;1.10;;;1.00;;
55545;SDS011;44768;50.298;127.520;2022-10-17T15:14:30;1.63;;;1.20;;
55545;SDS011;44768;50.298;127.520;2022-10-17T15:19:31;1.10;;;1.00;;
55545;SDS011;44768;50.298;127.520;2022-10-17T15:24:32;0.97;;;0.87;;
55545;SDS011;44768;50.298;127.520;2022-10-17T15:29:34;2.03;;;0.90;;
55545;SDS011;44768;50.298;127.520;2022-10-17T15:34:35;5.17;;;1.00;;
55545;SDS011;44768;50.298;127.520;2022-10-17T15:39:36;1.00;;;0.98;;
55545;SDS011;44768;50.298;127.520;2022-10-17T15:44:37;1.45;;;1.33;;
55545;SDS011;44768;50.298;127.520;2022-10-17T15:49:41;1.02;;;0.98;;
55545;SDS011;44768;50.298;127.520;2022-10-17T15:54:43;11.23;;;0.90;;
55545;SDS011;44768;50.298;127.520;2022-10-17T15:59:44;0.70;;;0.70;;
55545;SDS011;44768;50.298;127.520;2022-10-17T16:04:47;2.53;;;0.75;;
55545;SDS011;44768;50.298;127.520;2022-10-17T16:09:49;1.10;;;1.05;;
55545;SDS011;44768;50.298;127.520;2022-10-17T16:14:50;1.70;;;1.03;;
55545;SDS011;44768;50.298;127.520;2022-10-17T16:19:51;3.83;;;1.10;;
55545;SDS011;44768;50.298;127.520;2022-10-17T16:24:52;0.90;;;0.90;;
55545;SDS011;44768;50.298;127.520;2022-10-17T16:29:58;0.98;;;0.95;;
55545;SDS011;44768;50.298;127.520;2022-10-17T16:34:59;0.80;;;0.80;;
55545;SDS011;44768;50.298;127.520;2022-10-17T16:40:01;1.52;;;1.02;;
55545;SDS011;44768;50.298;127.520;2022-10-17T16:45:04;2.92;;;0.90;;
55545;SDS011;44768;50.298;127.520;2022-10-17T16:50:05;2.67;;;0.82;;
55545;SDS011;44768;50.298;127.520;2022-10-17T16:55:08;0.80;;;0.80;;
55545;SDS011;44768;50.298;127.520;2022-10-17T17:00:11;1.00;;;0.90;;
55545;SDS011;44768;50.298;127.520;2022-10-17T17:05:14;1.20;;;1.08;;
55545;SDS011;44768;50.298;127.520;2022-10-17T17:10:15;0.77;;;0.70;;
55545;SDS011;44768;50.298;127.520;2022-10-17T17:15:16;2.83;;;0.83;;
55545;SDS011;44768;50.298;127.520;2022-10-17T17:20:17;1.02;;;1.00;;
55545;SDS011;44768;50.298;127.520;2022-10-17T17:25:18;1.23;;;1.13;;
55545;SDS011;44768;50.298;127.520;2022-10-17T17:30:19;0.90;;;0.90;;
55545;SDS011;44768;50.298;127.520;2022-10-17T17:35:20;0.90;;;0.90;;
55545;SDS011;44768;50.298;127.520;2022-10-17T17:40:22;0.83;;;0.83;;
55545;SDS011;44768;50.298;127.520;2022-10-17T17:45:23;0.80;;;0.80;;
55545;SDS011;44768;50.298;127.520;2022-10-17T17:50:24;1.17;;;1.00;;
55545;SDS011;44768;50.298;127.520;2022-10-17T17:55:26;1.42;;;1.00;;
55545;SDS011;44768;50.298;127.520;2022-10-17T18:00:27;0.90;;;0.90;;
55545;SDS011;44768;50.298;127.520;2022-10-17T18:05:29;3.97;;;0.87;;
55545;SDS011;44768;50.298;127.520;2022-10-17T18:10:30;1.00;;;1.00;;
55545;SDS011;44768;50.298;127.520;2022-10-17T18:15:31;0.87;;;0.87;;
55545;SDS011;44768;50.298;127.520;2022-10-17T18:20:32;4.68;;;0.98;;
55545;SDS011;44768;50.298;127.520;2022-10-17T18:25:34;1.05;;;0.80;;
55545;SDS011;44768;50.298;127.520;2022-10-17T18:30:36;0.87;;;0.87;;
55545;SDS011;44768;50.298;127.520;2022-10-17T18:40:38;0.80;;;0.77;;
55545;SDS011;44768;50.298;127.520;2022-10-17T18:45:40;0.82;;;0.82;;
55545;SDS011;44768;50.298;127.520;2022-10-17T18:50:41;1.70;;;0.95;;
55545;SDS011;44768;50.298;127.520;2022-10-17T18:55:43;0.82;;;0.82;;
55545;SDS011;44768;50.298;127.520;2022-10-17T19:00:44;0.90;;;0.90;;
55545;SDS011;44768;50.298;127.520;2022-10-17T19:05:46;1.00;;;1.00;;
55545;SDS011;44768;50.298;127.520;2022-10-17T19:10:47;2.60;;;0.90;;
55545;SDS011;44768;50.298;127.520;2022-10-17T19:15:48;0.83;;;0.83;;
55545;SDS011;44768;50.298;127.520;2022-10-17T19:20:49;0.77;;;0.70;;
55545;SDS011;44768;50.298;127.520;2022-10-17T19:25:52;0.75;;;0.75;;
55545;SDS011;44768;50.298;127.520;2022-10-17T19:30:53;1.10;;;1.00;;
55545;SDS011;44768;50.298;127.520;2022-10-17T19:35:55;0.73;;;0.73;;
55545;SDS011;44768;50.298;127.520;2022-10-17T19:40:57;0.98;;;0.80;;
55545;SDS011;44768;50.298;127.520;2022-10-17T19:45:59;3.97;;;0.90;;
55545;SDS011;44768;50.298;127.520;2022-10-17T19:51:00;1.08;;;0.80;;
55545;SDS011;44768;50.298;127.520;2022-10-17T19:56:03;0.80;;;0.80;;
55545;SDS011;44768;50.298;127.520;2022-10-17T20:01:04;0.85;;;0.80;;
55545;SDS011;44768;50.298;127.520;2022-10-17T20:06:06;0.80;;;0.80;;
55545;SDS011;44768;50.298;127.520;2022-10-17T20:11:09;1.10;;;0.90;;
55545;SDS011;44768;50.298;127.520;2022-10-17T20:16:13;1.27;;;1.17;;
55545;SDS011;44768;50.298;127.520;2022-10-17T20:21:16;0.90;;;0.82;;
55545;SDS011;44768;50.298;127.520;2022-10-17T20:26:18;0.80;;;0.80;;
55545;SDS011;44768;50.298;127.520;2022-10-17T20:31:20;0.82;;;0.82;;
55545;SDS011;44768;50.298;127.520;2022-10-17T20:36:22;1.20;;;1.10;;
55545;SDS011;44768;50.298;127.520;2022-10-17T20:46:26;2.58;;;2.20;;
55545;SDS011;44768;50.298;127.520;2022-10-17T20:51:28;4.70;;;2.42;;
55545;SDS011;44768;50.298;127.520;2022-10-17T20:56:31;5.13;;;3.50;;
55545;SDS011;44768;50.298;127.520;2022-10-17T21:01:33;6.22;;;4.53;;
55545;SDS011;44768;50.298;127.520;2022-10-17T21:06:34;2.72;;;2.53;;
55545;SDS011;44768;50.298;127.520;2022-10-17T21:11:36;2.78;;;1.50;;
55545;SDS011;44768;50.298;127.520;2022-10-17T21:16:38;1.02;;;1.00;;
55545;SDS011;44768;50.298;127.520;2022-10-17T21:21:41;4.82;;;1.23;;
55545;SDS011;44768;50.298;127.520;2022-10-17T21:26:42;0.98;;;0.98;;
55545;SDS011;44768;50.298;127.520;2022-10-17T21:31:44;2.08;;;0.98;;
55545;SDS011;44768;50.298;127.520;2022-10-17T21:36:46;1.40;;;1.00;;
55545;SDS011;44768;50.298;127.520;2022-10-17T21:41:48;1.77;;;1.10;;
55545;SDS011;44768;50.298;127.520;2022-10-17T21:46:49;0.90;;;0.90;;
55545;SDS011;44768;50.298;127.520;2022-10-17T21:51:51;3.75;;;0.93;;
55545;SDS011;44768;50.298;127.520;2022-10-17T21:56:53;1.23;;;1.15;;
55545;SDS011;44768;50.298;127.520;2022-10-17T22:01:54;7.38;;;1.30;;
55545;SDS011;44768;50.298;127.520;2022-10-17T22:06:56;1.45;;;1.08;;
55545;SDS011;44768;50.298;127.520;2022-10-17T22:11:57;3.27;;;1.10;;
55545;SDS011;44768;50.298;127.520;2022-10-17T22:16:58;5.10;;;1.67;;
55545;SDS011;44768;50.298;127.520;2022-10-17T22:22:01;10.02;;;1.10;;
55545;SDS011;44768;50.298;127.520;2022-10-17T22:27:02;13.63;;;1.87;;
55545;SDS011;44768;50.298;127.520;2022-10-17T22:32:03;7.10;;;1.50;;
55545;SDS011;44768;50.298;127.520;2022-10-17T22:37:04;14.10;;;1.47;;
55545;SDS011;44768;50.298;127.520;2022-10-17T22:42:06;12.63;;;1.50;;
55545;SDS011;44768;50.298;127.520;2022-10-17T22:47:07;14.83;;;1.80;;
55545;SDS011;44768;50.298;127.520;2022-10-17T22:52:08;16.17;;;1.93;;
55545;SDS011;44768;50.298;127.520;2022-10-17T22:57:11;6.03;;;1.23;;
55545;SDS011;44768;50.298;127.520;2022-10-17T23:07:13;19.05;;;1.10;;
55545;SDS011;44768;50.298;127.520;2022-10-17T23:12:15;5.47;;;0.88;;
55545;SDS011;44768;50.298;127.520;2022-10-17T23:17:16;15.93;;;1.27;;
55545;SDS011;44768;50.298;127.520;2022-10-17T23:22:17;1.10;;;0.70;;
55545;SDS011;44768;50.298;127.520;2022-10-17T23:27:19;18.47;;;1.60;;
55545;SDS011;44768;50.298;127.520;2022-10-17T23:32:20;17.37;;;1.43;;
55545;SDS011;44768;50.298;127.520;2022-10-17T23:37:21;2.90;;;0.70;;
55545;SDS011;44768;50.298;127.520;2022-10-17T23:42:22;13.70;;;1.53;;
55545;SDS011;44768;50.298;127.520;2022-10-17T23:47:23;20.47;;;1.83;;
55545;SDS011;44768;50.298;127.520;2022-10-17T23:52:25;29.47;;;1.77;;
55545;SDS011;44768;50.298;127.520;2022-10-17T23:57:27;17.23;;;1.50;;
